Carvers, Nevada
Current Conditions -  °F | °C
As of 3:56 AM on Friday 24 Oct 2014 (Local Time) from KTPH Reporting Station
Clear Clear  
Wind Chill: 34°   Ceiling: Unl
Heat Index: 41°   Visibility: 10mi
Dew Point: 22°   Wind: 12mph
Humidity: 47%   Direction: 360°N
Pressure: 30.18"   Gusts: NA
Location:  38.8172°N, 117.224°W
Report Text: KTPH 241056Z AUTO 36010KT 10SM CLR 05/M06 A3018 RMK AO2 SLP181 T00501056
Loading
Personal Weather Stations






























Interactive Weather Map
Tropical Storm Tracking
New forecast layout! Learn more

10-Day Weather Forecast

Advertisements
Track Severe Weather on mobile